Time;durP1;ratioP1;P1;durP2;ratioP2;P2;SDS_P1;SDS_P2;PMS_P1;PMS_P2;Temp;Humidity;BMP_temperature;BMP_pressure;BME280_temperature;BME280_humidity;BME280_pressure;Samples;Min_cycle;Max_cycle;Signal;HPM_P1;HPM_P2
2022/07/16 00:01:24;;;;;;;10.18;5.17;;;;;;;12.76;66.51;97537.33;1836807;78;27558;-78
2022/07/16 00:04:00;;;;;;;10.72;4.75;;;;;;;12.73;66.59;97539.94;1836253;78;25657;-80
2022/07/16 00:06:28;;;;;;;8.65;4.55;;;;;;;12.73;66.70;97537.23;1836658;78;25237;-78
2022/07/16 00:08:55;;;;;;;9.90;4.83;;;;;;;12.70;66.74;97529.55;1836708;78;25704;-80
2022/07/16 00:11:23;;;;;;;14.07;4.72;;;;;;;12.68;66.89;97528.13;1836708;78;25728;-81
2022/07/16 00:13:50;;;;;;;10.08;5.37;;;;;;;12.66;67.05;97530.23;1836659;78;27448;-79
2022/07/16 00:16:16;;;;;;;9.10;5.28;;;;;;;12.63;67.16;97530.97;1836633;78;25727;-80
2022/07/16 00:21:28;;;;;;;7.85;4.83;;;;;;;12.64;67.20;97522.33;1836343;78;26523;-79
2022/07/16 00:23:55;;;;;;;9.78;5.20;;;;;;;12.60;67.29;97513.80;1836442;78;25653;-80
2022/07/16 00:26:22;;;;;;;10.43;4.85;;;;;;;12.58;67.32;97511.84;1835597;78;27505;-79
2022/07/16 00:28:49;;;;;;;8.53;5.12;;;;;;;12.54;67.42;97509.29;1801442;79;25681;-80
2022/07/16 00:31:15;;;;;;;9.73;5.08;;;;;;;12.51;67.54;97509.72;1770123;80;25961;-78
2022/07/16 00:33:42;;;;;;;8.53;4.67;;;;;;;12.49;67.49;97505.05;1801972;79;25753;-81
2022/07/16 00:36:08;;;;;;;8.30;4.97;;;;;;;12.47;67.55;97504.95;1770100;80;25697;-80
2022/07/16 00:38:35;;;;;;;12.15;5.58;;;;;;;12.42;67.66;97504.28;1824097;78;26691;-78
2022/07/16 00:41:02;;;;;;;10.00;5.55;;;;;;;12.38;67.74;97503.05;1801705;79;25730;-77
2022/07/16 00:43:28;;;;;;;8.13;4.62;;;;;;;12.34;67.88;97497.77;1770043;80;25678;-79
2022/07/16 00:45:55;;;;;;;9.90;5.00;;;;;;;12.31;67.92;97497.41;1824126;78;25730;-82
2022/07/16 00:48:22;;;;;;;14.33;5.22;;;;;;;12.28;68.04;97495.13;1801953;79;25500;-78
2022/07/16 00:50:48;;;;;;;10.75;5.70;;;;;;;12.25;68.15;97486.92;1770069;80;27334;-78
2022/07/16 00:53:15;;;;;;;7.33;4.90;;;;;;;12.23;68.13;97495.77;1801742;79;25681;-78
2022/07/16 00:55:41;;;;;;;6.65;5.03;;;;;;;12.20;68.22;97488.09;1770139;80;25529;-80
2022/07/16 00:58:08;;;;;;;9.75;5.25;;;;;;;12.13;68.28;97490.86;1823762;78;26552;-78
2022/07/16 01:00:35;;;;;;;8.13;4.97;;;;;;;12.08;68.45;97496.60;1802007;79;26337;-77
2022/07/16 01:03:05;;;;;;;11.83;5.10;;;;;;;12.04;68.46;97494.88;1770191;80;28666;-78
2022/07/16 01:05:32;;;;;;;6.58;5.00;;;;;;;12.01;68.53;97484.48;1801701;79;25685;-78
2022/07/16 01:07:59;;;;;;;16.10;5.20;;;;;;;11.97;68.59;97485.96;1824070;78;25780;-78
2022/07/16 01:10:25;;;;;;;10.28;4.53;;;;;;;11.96;68.66;97487.53;1801843;79;25788;-77
2022/07/16 01:12:52;;;;;;;9.85;4.72;;;;;;;11.93;68.69;97478.52;1770113;81;25160;-77
2022/07/16 01:15:19;;;;;;;9.53;4.62;;;;;;;11.89;68.69;97477.59;1801618;79;27412;-77
2022/07/16 01:17:45;;;;;;;9.90;4.90;;;;;;;11.84;68.67;97478.76;1769983;81;25758;-80
2022/07/16 01:20:12;;;;;;;8.30;4.92;;;;;;;11.82;68.72;97473.28;1801880;79;25823;-78
2022/07/16 01:22:38;;;;;;;8.88;4.35;;;;;;;11.78;68.77;97474.75;1770135;80;26616;-78
2022/07/16 01:25:10;;;;;;;6.83;3.83;;;;;;;11.73;68.74;97469.95;1823941;78;25644;-78
2022/07/16 01:27:36;;;;;;;5.20;3.90;;;;;;;11.71;68.84;97474.74;1766027;80;27383;-80
2022/07/16 01:30:04;;;;;;;8.18;3.80;;;;;;;11.66;68.88;97470.52;1767226;81;25742;-78
2022/07/16 01:32:31;;;;;;;5.22;3.22;;;;;;;11.62;68.93;97477.41;1767569;81;25809;-77
2022/07/16 01:34:58;;;;;;;11.63;4.10;;;;;;;11.60;68.96;97473.25;1767574;81;25817;-80
2022/07/16 01:37:24;;;;;;;6.05;3.35;;;;;;;11.53;68.93;97467.37;1767702;81;25871;-78
2022/07/16 01:39:51;;;;;;;7.90;3.62;;;;;;;11.48;68.96;97473.10;1767597;81;27451;-78
2022/07/16 01:42:17;;;;;;;5.75;3.30;;;;;;;11.43;69.05;97467.01;1767705;81;26154;-78
2022/07/16 01:44:44;;;;;;;7.20;3.80;;;;;;;11.39;69.06;97463.59;1767539;81;25719;-77
2022/07/16 01:47:10;;;;;;;6.20;3.67;;;;;;;11.32;69.07;97470.39;1767653;80;26567;-79
2022/07/16 01:49:39;;;;;;;13.68;3.40;;;;;;;11.27;69.26;97468.00;1767673;81;25780;-78
2022/07/16 01:52:12;;;;;;;6.33;3.35;;;;;;;11.24;69.36;97465.72;1767485;79;28215;-82
2022/07/16 01:54:48;;;;;;;6.03;3.25;;;;;;;11.18;69.38;97460.67;1767402;81;25808;-78
2022/07/16 01:57:15;;;;;;;4.83;3.30;;;;;;;11.17;69.43;97463.89;1767349;79;25818;-76
2022/07/16 01:59:42;;;;;;;6.87;3.22;;;;;;;11.13;69.46;97459.95;1767435;81;25756;-78
2022/07/16 02:02:10;;;;;;;5.37;3.10;;;;;;;10.98;69.46;97460.75;1767605;79;25796;-81
2022/07/16 02:04:39;;;;;;;5.05;3.27;;;;;;;10.87;69.57;97457.88;1767565;79;27552;-78
2022/07/16 02:07:05;;;;;;;10.93;3.37;;;;;;;10.87;69.75;97462.72;1767709;81;25749;-78
2022/07/16 02:09:33;;;;;;;6.87;3.55;;;;;;;10.88;69.69;97462.20;1767719;81;25888;-81
2022/07/16 02:11:59;;;;;;;6.45;3.30;;;;;;;10.86;69.67;97462.97;1767809;79;25813;-79
2022/07/16 02:14:26;;;;;;;5.28;3.20;;;;;;;10.83;69.69;97457.45;1767776;80;25915;-78
2022/07/16 02:16:53;;;;;;;5.08;3.80;;;;;;;10.80;69.67;97457.36;1767839;79;27452;-78
2022/07/16 02:19:20;;;;;;;8.45;3.35;;;;;;;10.75;69.72;97459.84;1767786;79;25327;-78
2022/07/16 02:21:47;;;;;;;4.67;3.12;;;;;;;10.74;69.75;97462.78;1767830;81;25780;-78
2022/07/16 02:24:13;;;;;;;5.03;2.80;;;;;;;10.71;69.71;97453.23;1777827;80;26419;-78
2022/07/16 02:26:40;;;;;;;5.47;3.00;;;;;;;10.67;69.67;97452.50;1773596;80;26036;-78
2022/07/16 02:29:06;;;;;;;4.97;2.80;;;;;;;10.63;69.65;97453.43;1832655;76;27951;-78
2022/07/16 02:31:33;;;;;;;9.70;3.35;;;;;;;10.59;69.71;97450.03;1833034;78;25658;-78
2022/07/16 02:33:59;;;;;;;5.17;2.87;;;;;;;10.57;69.76;97453.45;1838591;78;25684;-81
2022/07/16 02:36:26;;;;;;;5.80;2.55;;;;;;;10.54;69.75;97455.22;1838944;78;26668;-80
2022/07/16 02:38:53;;;;;;;15.00;3.02;;;;;;;10.50;69.71;97458.88;1838839;78;25387;-78
2022/07/16 02:41:19;;;;;;;5.90;3.45;;;;;;;10.45;69.68;97460.84;1838777;78;27387;-77
2022/07/16 02:43:46;;;;;;;8.83;3.80;;;;;;;10.42;69.77;97462.60;1824156;78;25816;-80
2022/07/16 02:46:13;;;;;;;6.53;3.87;;;;;;;10.40;69.80;97456.58;1801903;79;25709;-78
2022/07/16 02:48:39;;;;;;;13.93;4.50;;;;;;;10.38;69.84;97464.08;1770344;80;26053;-81
2022/07/16 02:51:06;;;;;;;9.13;4.17;;;;;;;10.34;69.83;97468.22;1801945;79;25761;-82
2022/07/16 02:53:32;;;;;;;7.30;3.45;;;;;;;10.29;69.90;97473.40;1770147;80;27335;-78
2022/07/16 02:55:59;;;;;;;6.40;3.22;;;;;;;10.27;69.90;97475.47;1801764;79;25752;-79
2022/07/16 02:58:25;;;;;;;6.42;3.75;;;;;;;10.23;70.04;97480.99;1770185;80;25713;-78
2022/07/16 03:00:52;;;;;;;5.30;3.20;;;;;;;10.20;70.08;97475.17;1801814;78;25779;-81
2022/07/16 03:03:19;;;;;;;5.03;2.92;;;;;;;10.18;70.20;97483.47;1770345;80;25658;-81
2022/07/16 03:05:45;;;;;;;3.85;3.10;;;;;;;10.17;70.26;97484.47;1802025;79;28000;-77
2022/07/16 03:08:12;;;;;;;4.28;3.20;;;;;;;10.20;70.35;97475.17;1770099;79;25722;-77
2022/07/16 03:10:38;;;;;;;5.62;2.55;;;;;;;10.21;70.38;97483.58;1823745;78;25785;-78
2022/07/16 03:13:05;;;;;;;6.50;3.00;;;;;;;10.19;70.39;97471.64;1801852;79;26597;-79
2022/07/16 03:15:32;;;;;;;6.85;2.80;;;;;;;10.21;70.51;97472.78;1770109;79;25685;-81
2022/07/16 03:17:58;;;;;;;14.35;3.50;;;;;;;10.22;70.54;97476.63;1823911;78;27438;-78
2022/07/16 03:20:25;;;;;;;9.58;3.47;;;;;;;10.25;70.53;97482.97;1801811;79;25701;-78
2022/07/16 03:22:52;;;;;;;7.53;3.25;;;;;;;10.24;70.58;97482.66;1770227;80;25685;-78
2022/07/16 03:25:18;;;;;;;6.62;3.55;;;;;;;10.19;70.60;97483.78;1824103;78;26534;-80
2022/07/16 03:27:45;;;;;;;14.38;4.67;;;;;;;10.18;70.74;97481.25;1802850;78;25796;-78
2022/07/16 03:30:14;;;;;;;6.72;4.67;;;;;;;10.17;70.79;97487.16;1773682;80;27469;-78
2022/07/16 03:32:42;;;;;;;6.40;4.47;;;;;;;10.19;70.92;97482.43;1805475;79;44108;-79
2022/07/16 03:35:11;;;;;;;5.00;3.98;;;;;;;10.22;70.96;97475.28;1773694;79;25720;-78
2022/07/16 03:38:57;;;;;;;6.25;4.17;;;;;;;10.26;70.98;97483.80;1836706;78;25672;-78
2022/07/16 03:40:09;;;;;;;7.53;4.35;;;;;;;10.20;70.92;97485.44;1832764;78;25667;-78
2022/07/16 03:42:35;;;;;;;8.00;6.33;;;;;;;10.19;70.98;97482.43;1836611;78;27585;-81
2022/07/16 03:45:02;;;;;;;8.83;6.17;;;;;;;10.24;71.12;97484.00;1836422;78;25691;-80
2022/07/16 03:47:28;;;;;;;7.97;5.25;;;;;;;10.28;71.09;97485.22;1836565;78;25768;-80
2022/07/16 03:49:55;;;;;;;9.65;4.80;;;;;;;10.30;71.09;97482.33;1836635;78;25689;-82
2022/07/16 03:52:21;;;;;;;11.90;5.90;;;;;;;10.33;71.13;97478.70;1836702;78;25631;-82
2022/07/16 03:54:48;;;;;;;7.65;5.37;;;;;;;10.33;71.01;97481.40;1836649;78;28120;-79
2022/07/16 03:57:15;;;;;;;10.58;6.45;;;;;;;10.33;70.99;97482.75;1836625;78;25716;-79
2022/07/16 03:59:41;;;;;;;9.35;6.78;;;;;;;10.33;71.04;97482.75;1836701;78;25255;-77
2022/07/16 04:02:08;;;;;;;10.82;8.30;;;;;;;10.34;71.15;97479.02;1836755;78;25654;-80
2022/07/16 04:04:35;;;;;;;28.57;15.55;;;;;;;10.38;71.19;97465.95;1836763;78;25770;-81
2022/07/16 04:07:01;;;;;;;23.15;13.18;;;;;;;10.39;71.20;97475.16;1836551;78;27502;-79
2022/07/16 04:09:28;;;;;;;20.52;10.53;;;;;;;10.40;71.13;97480.87;1836667;78;25864;-82
2022/07/16 04:11:55;;;;;;;12.85;7.90;;;;;;;10.41;71.15;97479.83;1836613;78;25743;-82
2022/07/16 04:14:22;;;;;;;9.25;6.40;;;;;;;10.45;71.26;97470.29;1842833;77;25795;-81
2022/07/16 04:16:48;;;;;;;11.22;6.00;;;;;;;10.51;71.38;97478.57;1844940;77;25215;-82
2022/07/16 04:19:15;;;;;;;11.57;5.85;;;;;;;10.56;71.43;97474.22;1846213;77;27489;-77
2022/07/16 04:21:41;;;;;;;7.62;4.62;;;;;;;10.62;71.38;97479.31;1840655;77;26295;-78
2022/07/16 04:24:08;;;;;;;7.22;4.62;;;;;;;10.67;71.45;97474.09;1844875;77;25645;-78
2022/07/16 04:26:34;;;;;;;9.93;4.62;;;;;;;10.70;71.53;97463.72;1846515;77;26514;-79
2022/07/16 04:29:01;;;;;;;11.33;4.03;;;;;;;10.76;71.55;97472.83;1832224;77;25735;-79
2022/07/16 04:31:27;;;;;;;7.83;3.85;;;;;;;10.77;71.36;97467.73;1826776;78;28635;-79
2022/07/16 04:33:54;;;;;;;15.18;5.15;;;;;;;10.80;71.26;97468.67;1826792;78;25699;-79
2022/07/16 04:36:21;;;;;;;12.55;6.03;;;;;;;10.84;71.24;97463.17;1827163;78;25700;-79
2022/07/16 04:38:47;;;;;;;12.65;5.72;;;;;;;10.91;71.31;97468.02;1826629;78;25725;-79
2022/07/16 04:41:14;;;;;;;8.78;5.22;;;;;;;10.98;71.16;97464.80;1827204;78;25633;-82
2022/07/16 04:43:40;;;;;;;10.35;4.92;;;;;;;11.05;71.18;97464.25;1826999;78;28010;-79
2022/07/16 04:46:07;;;;;;;12.40;4.90;;;;;;;11.12;71.13;97463.69;1826950;78;25697;-80
2022/07/16 04:48:33;;;;;;;8.15;4.30;;;;;;;11.22;71.17;97469.19;1827014;78;25661;-79
2022/07/16 04:51:00;;;;;;;7.80;4.78;;;;;;;11.32;70.98;97470.91;1827008;78;25663;-82
2022/07/16 04:53:27;;;;;;;11.00;5.72;;;;;;;11.37;70.90;97467.02;1827034;78;25803;-80
2022/07/16 04:55:53;;;;;;;14.03;4.30;;;;;;;11.43;70.97;97467.01;1826989;78;27298;-79
2022/07/16 04:58:20;;;;;;;10.50;4.22;;;;;;;11.45;70.98;97460.04;1827046;78;25642;-79
2022/07/16 05:00:47;;;;;;;8.73;4.20;;;;;;;11.47;70.97;97457.95;1826954;78;25650;-80
2022/07/16 05:03:13;;;;;;;9.80;4.05;;;;;;;11.52;71.23;97458.13;1827128;78;25897;-79
2022/07/16 05:05:40;;;;;;;7.87;4.30;;;;;;;11.53;71.22;97454.38;1826938;77;25724;-79
2022/07/16 05:08:09;;;;;;;12.60;4.30;;;;;;;11.58;71.21;97455.92;1827111;78;27988;-79
2022/07/16 05:10:36;;;;;;;10.43;4.37;;;;;;;11.62;70.97;97454.94;1826969;78;25869;-78
2022/07/16 05:13:03;;;;;;;8.53;4.05;;;;;;;11.67;70.84;97450.55;1827128;78;26119;-78
2022/07/16 05:15:31;;;;;;;8.65;4.53;;;;;;;11.76;70.77;97455.20;1826904;78;26409;-78
2022/07/16 05:17:57;;;;;;;10.32;3.95;;;;;;;11.82;70.43;97448.42;1827042;78;26725;-78
2022/07/16 05:20:24;;;;;;;10.00;4.60;;;;;;;11.89;70.20;97451.90;1827009;77;27414;-78
2022/07/16 05:22:50;;;;;;;7.00;3.85;;;;;;;11.95;70.26;97445.32;1827129;78;25665;-78
2022/07/16 05:25:17;;;;;;;6.97;4.35;;;;;;;12.03;70.41;97448.58;1826984;78;25650;-78
2022/07/16 05:27:44;;;;;;;9.78;4.17;;;;;;;12.10;70.22;97444.45;1826814;78;25717;-78
2022/07/16 05:30:11;;;;;;;6.40;4.12;;;;;;;12.17;70.15;97445.25;1826762;78;25709;-78
2022/07/16 05:32:38;;;;;;;8.65;4.37;;;;;;;12.25;70.34;97439.55;1827062;78;27541;-78
2022/07/16 05:35:06;;;;;;;16.00;4.47;;;;;;;12.34;70.48;97442.28;1826948;78;25409;-78
2022/07/16 05:37:32;;;;;;;9.38;4.20;;;;;;;12.41;70.38;97439.53;1826907;78;25953;-78
2022/07/16 05:39:59;;;;;;;7.42;4.45;;;;;;;12.48;70.33;97433.52;1826809;78;25716;-78
2022/07/16 05:42:26;;;;;;;8.60;4.12;;;;;;;12.56;70.40;97434.05;1827259;78;25689;-78
2022/07/16 05:44:53;;;;;;;6.95;3.50;;;;;;;12.62;70.23;97430.99;1827078;77;27604;-78
2022/07/16 05:47:20;;;;;;;8.63;3.60;;;;;;;12.70;70.22;97425.80;1827062;78;25670;-78
2022/07/16 05:49:46;;;;;;;8.18;3.42;;;;;;;12.76;69.74;97424.39;1827275;78;25716;-78
2022/07/16 05:52:13;;;;;;;8.93;3.65;;;;;;;12.84;69.45;97428.67;1832010;77;25795;-78
2022/07/16 05:54:40;;;;;;;9.40;3.55;;;;;;;12.91;69.47;97422.67;1841830;77;25609;-78
2022/07/16 05:57:06;;;;;;;6.85;3.62;;;;;;;13.00;69.31;97421.31;1841782;77;27445;-77
2022/07/16 05:59:33;;;;;;;6.65;3.20;;;;;;;13.08;68.96;97418.81;1841847;77;25792;-78
2022/07/16 06:01:59;;;;;;;10.43;3.27;;;;;;;13.16;69.00;97415.85;1841523;77;25681;-79
2022/07/16 06:04:26;;;;;;;7.75;3.17;;;;;;;13.24;68.64;97412.30;1841579;77;26545;-79
2022/07/16 06:06:52;;;;;;;4.87;3.25;;;;;;;13.33;68.33;97408.20;1841994;77;25818;-78
2022/07/16 06:09:19;;;;;;;10.32;3.50;;;;;;;13.43;68.24;97414.95;1841845;77;27350;-79
2022/07/16 06:11:46;;;;;;;8.33;3.27;;;;;;;13.54;68.30;97414.17;1841733;77;25688;-78
2022/07/16 06:14:12;;;;;;;5.67;2.92;;;;;;;13.63;67.82;97415.00;1841790;77;25712;-78
2022/07/16 06:16:42;;;;;;;9.05;3.00;;;;;;;13.74;67.86;97422.88;1841854;77;25704;-78
2022/07/16 06:19:09;;;;;;;5.87;3.00;;;;;;;13.84;67.71;97427.22;1841916;77;25407;-79
2022/07/16 06:21:35;;;;;;;8.65;3.62;;;;;;;13.93;67.33;97422.27;1841727;77;27459;-78
2022/07/16 06:24:02;;;;;;;4.85;3.12;;;;;;;14.01;66.97;97421.40;1841777;77;25682;-78
2022/07/16 06:26:28;;;;;;;4.65;2.87;;;;;;;14.10;66.76;97415.66;1841692;77;25696;-79
2022/07/16 06:28:55;;;;;;;6.75;2.92;;;;;;;14.19;66.66;97415.08;1831663;77;25789;-77
2022/07/16 06:31:22;;;;;;;7.33;3.20;;;;;;;14.29;66.46;97411.78;1826552;78;25949;-79
2022/07/16 06:33:48;;;;;;;10.53;3.30;;;;;;;14.38;66.15;97410.36;1827057;77;28157;-78
2022/07/16 06:36:15;;;;;;;7.45;3.67;;;;;;;14.49;66.02;97409.56;1832717;77;25710;-78
2022/07/16 06:38:42;;;;;;;7.30;2.98;;;;;;;14.61;65.94;97409.59;1842070;77;25757;-78
2022/07/16 06:41:08;;;;;;;9.95;3.87;;;;;;;14.71;65.57;97406.58;1841840;77;25703;-77
2022/07/16 06:43:36;;;;;;;6.53;3.12;;;;;;;14.82;65.53;97401.36;1841906;77;25198;-78
2022/07/16 06:46:02;;;;;;;6.90;3.25;;;;;;;14.94;65.13;97406.25;1841916;77;28264;-78
2022/07/16 06:48:29;;;;;;;6.90;3.05;;;;;;;15.05;65.07;97404.04;1841567;77;25482;-78
2022/07/16 06:50:55;;;;;;;6.42;3.17;;;;;;;15.16;64.97;97403.18;1841799;77;26761;-79
2022/07/16 06:53:22;;;;;;;6.53;3.25;;;;;;;15.27;64.73;97403.68;1841825;77;25664;-78
2022/07/16 06:55:48;;;;;;;5.75;3.37;;;;;;;15.42;64.59;97399.09;1842052;77;26376;-78
2022/07/16 06:58:15;;;;;;;7.22;3.45;;;;;;;15.53;64.13;97401.47;1841873;77;28025;-78
2022/07/16 07:00:41;;;;;;;5.97;2.70;;;;;;;15.65;64.28;97388.67;1841929;77;25652;-78
2022/07/16 07:03:11;;;;;;;4.05;2.42;;;;;;;15.81;64.66;97399.60;1841988;77;25649;-79
2022/07/16 07:05:37;;;;;;;4.80;2.33;;;;;;;15.96;64.11;97398.20;1841796;77;25925;-78
2022/07/16 07:08:04;;;;;;;5.65;2.55;;;;;;;16.04;63.34;97397.28;1841982;77;26594;-79
2022/07/16 07:10:31;;;;;;;6.67;2.20;;;;;;;16.16;63.07;97399.39;1841652;77;27444;-78
2022/07/16 07:12:58;;;;;;;5.05;1.82;;;;;;;16.28;62.16;97398.48;1841999;77;25696;-78
2022/07/16 07:15:24;;;;;;;3.37;2.42;;;;;;;16.36;61.44;97394.80;1841940;77;26232;-78
2022/07/16 07:17:51;;;;;;;4.75;2.30;;;;;;;16.47;61.16;97394.41;1841912;77;25770;-78
2022/07/16 07:20:18;;;;;;;6.72;2.25;;;;;;;16.61;60.83;97388.92;1842023;77;25667;-79
2022/07/16 07:22:44;;;;;;;5.05;2.02;;;;;;;16.76;60.71;97391.91;1841631;77;27395;-79
2022/07/16 07:25:11;;;;;;;7.60;2.05;;;;;;;16.88;59.99;97389.89;1842109;77;25840;-79
2022/07/16 07:27:37;;;;;;;3.55;2.08;;;;;;;16.99;59.21;97381.30;1841996;77;25744;-79
2022/07/16 07:30:06;;;;;;;6.55;2.15;;;;;;;17.10;59.20;97384.45;1841745;77;25703;-79
2022/07/16 07:32:33;;;;;;;6.30;2.25;;;;;;;17.24;59.00;97378.91;1841780;77;25653;-79
2022/07/16 07:34:59;;;;;;;3.98;1.82;;;;;;;17.41;58.81;97380.17;1841898;77;27322;-79
2022/07/16 07:37:26;;;;;;;3.33;1.70;;;;;;;17.55;57.70;97375.97;1842026;77;25922;-79
2022/07/16 07:39:52;;;;;;;6.00;1.90;;;;;;;17.59;57.08;97373.02;1842073;77;25849;-79
2022/07/16 07:42:19;;;;;;;5.72;1.67;;;;;;;17.72;57.41;97379.19;1841952;77;26335;-78
2022/07/16 07:44:46;;;;;;;4.45;2.00;;;;;;;17.87;57.33;97382.08;1841858;77;25717;-79
2022/07/16 07:47:12;;;;;;;3.02;1.80;;;;;;;17.97;56.31;97376.70;1842064;77;27420;-79
2022/07/16 07:49:39;;;;;;;4.95;2.08;;;;;;;18.06;56.65;97377.05;1841796;77;25724;-79
2022/07/16 07:52:08;;;;;;;8.63;2.35;;;;;;;18.19;56.72;97376.63;1842113;77;25554;-79
2022/07/16 07:54:35;;;;;;;3.33;1.72;;;;;;;18.34;56.42;97379.48;1841987;77;25735;-79
2022/07/16 07:57:01;;;;;;;4.05;2.10;;;;;;;18.42;55.80;97369.42;1842028;77;25377;-78
2022/07/16 07:59:28;;;;;;;6.85;2.10;;;;;;;18.60;55.57;97368.20;1842017;77;27345;-79
2022/07/16 08:01:54;;;;;;;3.10;1.62;;;;;;;18.96;55.32;97368.69;1841596;77;25866;-79
2022/07/16 08:04:21;;;;;;;3.15;1.60;;;;;;;19.35;54.65;97368.31;1841496;77;25738;-79
2022/07/16 08:06:48;;;;;;;4.08;1.60;;;;;;;19.87;53.41;97367.39;1842035;77;25435;-79
2022/07/16 08:09:14;;;;;;;4.10;1.87;;;;;;;20.36;52.70;97372.67;1841920;77;25371;-80
2022/07/16 08:11:41;;;;;;;5.03;1.60;;;;;;;20.82;51.69;97353.41;1841970;77;27394;-80
2022/07/16 08:14:07;;;;;;;5.90;1.77;;;;;;;21.30;51.42;97351.08;1841784;77;25681;-79
2022/07/16 08:16:34;;;;;;;4.28;1.77;;;;;;;21.55;50.19;97356.45;1841867;77;25788;-79
2022/07/16 08:19:00;;;;;;;4.12;1.57;;;;;;;21.44;49.95;97357.61;1842044;77;25660;-80
2022/07/16 08:21:28;;;;;;;6.78;1.70;;;;;;;21.68;49.08;97355.83;1841951;77;25636;-79
2022/07/16 08:26:39;;;;;;;4.40;1.80;;;;;;;22.04;47.82;97354.25;1841565;77;25334;-79
2022/07/16 08:29:06;;;;;;;4.95;1.40;;;;;;;21.78;47.84;97354.39;1842458;76;25801;-80
2022/07/16 08:31:32;;;;;;;3.05;1.35;;;;;;;21.73;47.62;97343.45;1845096;77;26528;-80
2022/07/16 08:33:59;;;;;;;3.02;1.52;;;;;;;21.83;47.19;97350.25;1845525;77;25617;-80
2022/07/16 08:36:26;;;;;;;2.67;1.47;;;;;;;21.82;46.92;97349.98;1845436;77;27427;-80
2022/07/16 08:38:53;;;;;;;4.25;1.80;;;;;;;22.02;46.77;97346.84;1845003;77;25632;-80
2022/07/16 08:41:20;;;;;;;5.92;1.50;;;;;;;22.16;46.50;97344.53;1845430;77;25711;-79
2022/07/16 08:43:47;;;;;;;3.30;1.60;;;;;;;22.44;46.61;97341.56;1845587;77;26624;-79
2022/07/16 08:46:15;;;;;;;4.33;1.70;;;;;;;22.70;45.69;97337.19;1845456;77;25410;-80
2022/07/16 08:48:42;;;;;;;4.53;1.62;;;;;;;22.87;45.46;97340.33;1845617;77;27358;-80
2022/07/16 08:51:09;;;;;;;2.45;1.40;;;;;;;23.17;45.55;97326.23;1845302;77;25630;-81
2022/07/16 08:53:37;;;;;;;3.85;1.42;;;;;;;23.41;44.57;97328.13;1845460;77;25656;-80
2022/07/16 08:56:05;;;;;;;4.12;1.70;;;;;;;23.33;44.20;97326.83;1845440;77;25789;-80
2022/07/16 08:58:32;;;;;;;5.75;1.60;;;;;;;23.49;43.77;97326.91;1845432;77;25558;-80
2022/07/16 09:01:00;;;;;;;3.12;1.70;;;;;;;23.34;43.61;97329.84;1845412;77;28389;-80
2022/07/16 09:03:26;;;;;;;3.55;1.55;;;;;;;23.19;43.63;97326.72;1845090;77;25412;-81
2022/07/16 09:05:53;;;;;;;4.92;2.00;;;;;;;23.53;43.45;97324.41;1845548;77;25693;-80
2022/07/16 09:08:20;;;;;;;3.72;1.77;;;;;;;23.83;42.45;97323.97;1845500;77;25735;-79
2022/07/16 09:10:47;;;;;;;3.98;1.47;;;;;;;24.06;42.16;97336.84;1845547;77;25760;-80
2022/07/16 09:13:15;;;;;;;3.10;1.60;;;;;;;24.22;41.32;97326.42;1845344;77;28200;-80
2022/07/16 09:15:43;;;;;;;2.08;1.60;;;;;;;24.11;40.80;97328.23;1845336;77;26278;-79
2022/07/16 09:18:23;;;;;;;3.22;1.67;;;;;;;24.04;40.63;97332.73;1845507;77;25661;-79
2022/07/16 09:23:34;;;;;;;4.85;2.02;;;;;;;23.98;40.25;97330.63;1749434;81;26006;-80
2022/07/16 09:26:10;;;;;;;4.53;1.55;;;;;;;23.71;40.03;97326.34;1749605;82;27387;-80
2022/07/16 09:28:47;;;;;;;5.60;1.67;;;;;;;23.96;40.43;97324.59;1746483;82;25814;-80
2022/07/16 09:31:40;;;;;;;5.47;1.60;;;;;;;23.71;40.05;97316.70;1720486;82;26539;-79
2022/07/16 09:34:13;;;;;;;5.95;1.90;;;;;;;23.75;40.65;97328.78;1719656;83;25807;-80
2022/07/16 09:36:56;;;;;;;4.83;1.75;;;;;;;23.97;39.93;97326.23;1719962;83;25786;-79
2022/07/16 09:39:22;;;;;;;5.50;1.87;;;;;;;24.04;39.30;97329.42;1719144;83;27606;-79
2022/07/16 09:41:49;;;;;;;3.45;1.70;;;;;;;23.94;39.24;97326.82;1719982;83;25282;-79
2022/07/16 09:44:25;;;;;;;3.72;1.90;;;;;;;23.68;39.42;97329.69;1719951;83;25771;-80
2022/07/16 09:47:08;;;;;;;3.83;1.60;;;;;;;23.52;39.34;97333.80;1664641;86;25977;-78
2022/07/16 09:49:39;;;;;;;4.92;1.67;;;;;;;23.30;38.96;97333.77;1664773;86;26049;-79
2022/07/16 09:52:08;;;;;;;2.02;1.45;;;;;;;23.00;38.81;97334.13;1664834;86;26938;-80
2022/07/16 09:54:37;;;;;;;3.05;1.65;;;;;;;22.85;38.61;97334.28;1664706;86;25861;-79
2022/07/16 09:57:13;;;;;;;2.52;1.42;;;;;;;22.75;38.89;97337.12;1664770;86;25811;-79
2022/07/16 09:59:40;;;;;;;6.87;1.70;;;;;;;22.62;39.22;97328.99;1664791;86;25800;-79
2022/07/16 10:02:07;;;;;;;5.47;1.75;;;;;;;22.54;39.44;97329.08;1664964;86;25852;-79
2022/07/16 10:04:34;;;;;;;4.55;1.45;;;;;;;22.79;40.00;97331.34;1664689;86;27455;-79
2022/07/16 10:07:01;;;;;;;3.98;1.67;;;;;;;22.79;39.95;97334.09;1664817;86;25340;-80
2022/07/16 10:09:28;;;;;;;3.00;1.70;;;;;;;22.66;39.71;97338.88;1664814;86;25325;-79
2022/07/16 10:11:57;;;;;;;6.20;2.00;;;;;;;22.50;40.15;97333.52;1664942;86;25974;-80
2022/07/16 10:14:25;;;;;;;4.10;1.55;;;;;;;22.31;40.80;97336.72;1664755;86;25799;-79
2022/07/16 10:17:00;;;;;;;2.70;1.70;;;;;;;22.25;40.31;97343.36;1664783;86;28084;-79
2022/07/16 10:19:36;;;;;;;4.50;1.60;;;;;;;22.12;39.92;97334.39;1664684;86;25548;-79
2022/07/16 10:22:29;;;;;;;3.52;1.67;;;;;;;22.00;40.39;97339.43;1637862;86;25765;-79
2022/07/16 10:24:56;;;;;;;2.40;1.65;;;;;;;22.03;40.39;97330.63;1592018;89;32561;-79
2022/07/16 10:27:34;;;;;;;2.25;1.72;;;;;;;22.01;40.21;97329.53;1689482;83;25760;-79
2022/07/16 10:30:25;;;;;;;3.47;1.80;;;;;;;21.95;40.50;97325.16;1654716;86;27495;-80
2022/07/16 10:33:03;;;;;;;3.62;2.33;;;;;;;21.92;40.39;97321.05;1599322;89;26019;-79
2022/07/16 10:35:34;;;;;;;5.33;2.40;;;;;;;21.82;40.50;97319.75;1599336;89;25826;-78
2022/07/16 10:38:13;;;;;;;2.47;1.70;;;;;;;21.76;40.31;97325.00;1500157;95;25841;-79
2022/07/16 10:40:43;;;;;;;2.77;1.67;;;;;;;21.70;40.34;97318.47;1477849;95;26320;-79
2022/07/16 10:43:18;;;;;;;2.40;1.70;;;;;;;21.62;41.00;97315.75;1492275;95;27592;-79
2022/07/16 10:45:55;;;;;;;2.62;2.00;;;;;;;21.62;41.17;97313.00;1450290;98;25684;-78
2022/07/16 10:48:26;;;;;;;5.60;2.30;;;;;;;21.65;41.08;97313.81;1495059;95;25808;-79
2022/07/16 10:51:20;;;;;;;5.37;2.55;;;;;;;21.53;41.10;97311.97;1471754;97;25702;-79
2022/07/16 10:54:04;;;;;;;4.58;2.77;;;;;;;21.42;41.67;97309.01;1420684;99;25950;-78
2022/07/16 10:56:48;;;;;;;3.30;2.22;;;;;;;21.18;42.03;97312.42;1418642;99;27548;-79
2022/07/16 10:59:21;;;;;;;5.87;2.83;;;;;;;21.11;41.88;97311.89;1420694;100;26090;-78
2022/07/16 11:01:52;;;;;;;6.17;3.22;;;;;;;21.05;41.61;97310.80;1420793;99;25895;-78
2022/07/16 11:04:35;;;;;;;6.20;2.80;;;;;;;20.99;42.29;97314.12;1420703;99;25702;-78
2022/07/16 11:07:09;;;;;;;6.37;2.20;;;;;;;20.99;42.06;97310.02;1361199;104;26001;-78
2022/07/16 11:09:40;;;;;;;3.67;2.25;;;;;;;20.99;41.98;97312.76;1317115;107;27445;-78
2022/07/16 11:12:11;;;;;;;2.77;1.80;;;;;;;21.01;42.03;97311.90;1323637;108;25927;-77
2022/07/16 11:14:40;;;;;;;7.12;2.50;;;;;;;21.06;42.10;97307.78;1331556;107;25894;-78
2022/07/16 11:17:08;;;;;;;3.58;1.80;;;;;;;21.39;42.14;97309.02;1331308;107;26020;-78
2022/07/16 11:19:37;;;;;;;8.43;3.65;;;;;;;21.75;42.18;97307.42;1331594;107;26876;-78
2022/07/16 11:22:04;;;;;;;4.30;2.12;;;;;;;22.01;41.83;97308.09;1331555;107;27671;-78
2022/07/16 11:24:32;;;;;;;5.22;2.83;;;;;;;22.23;41.34;97302.40;1331512;107;26695;-78
2022/07/16 11:27:00;;;;;;;3.35;2.08;;;;;;;22.51;41.90;97301.33;1356561;104;25865;-78
2022/07/16 11:29:28;;;;;;;4.30;2.15;;;;;;;22.88;41.08;97292.42;1390897;103;25715;-78
2022/07/16 11:31:57;;;;;;;4.53;2.00;;;;;;;23.03;40.46;97296.94;1390714;102;25936;-79
2022/07/16 11:34:24;;;;;;;3.85;2.00;;;;;;;23.30;40.54;97295.22;1407302;98;28326;-78
2022/07/16 11:36:55;;;;;;;3.42;1.77;;;;;;;23.39;40.19;97287.11;1450415;98;25998;-78
2022/07/16 11:39:25;;;;;;;4.10;2.30;;;;;;;23.45;40.30;97291.97;1450361;98;25982;-79
2022/07/16 11:41:58;;;;;;;6.55;2.42;;;;;;;23.58;40.53;97294.02;1450440;98;25885;-79
2022/07/16 11:47:00;;;;;;;2.80;1.80;;;;;;;23.39;41.15;97294.55;1439969;96;27412;-79